Sunday, October 22, 2017, 5:01 PM EDT
Back to Local

KISP, Islip Long Island Mac Art

Location: Ronkonkoma, NY, United States Lat: 40.8
Local Time: 5:01 PM EDT (21:01 GMT) Lon: -73.1
Time Zone: US/Eastern Elev: 98 ft

Show me the last for .
Show Decoded

2017-10-22 15:56 METAR KISP 221956Z 17006KT 10SM SCT180 BKN250 21/11 A3037 RMK AO2 SLP285
                 T02110106 $ =
2017-10-22 14:56 METAR KISP 221856Z 17007KT 10SM SCT180 BKN250 22/09 A3038 RMK AO2 SLP287
                 T02170089 $ =
2017-10-22 13:56 METAR KISP 221756Z 18008KT 10SM FEW180 BKN250 22/09 A3039 RMK AO2 SLP289
                 T02220094 10233 20100 58009 $ =
2017-10-22 12:56 METAR KISP 221656Z 17006KT 10SM FEW180 SCT250 22/12 A3040 RMK AO2 SLP294
                 T02220117 $ =
2017-10-22 11:56 METAR KISP 221556Z 17005KT 10SM FEW180 SCT250 23/11 A3040 RMK AO2 SLP295
                 T02280111 $ =
2017-10-22 10:56 METAR KISP 221456Z 00000KT 10SM FEW180 BKN250 21/09 A3041 RMK AO2 SLP298
                 T02110094 50005 $ =
2017-10-22 09:56 METAR KISP 221356Z 25003KT 10SM FEW180 BKN250 19/12 A3042 RMK AO2 SLP301
                 T01890117 $ =
2017-10-22 08:56 METAR KISP 221256Z 00000KT 10SM FEW200 SCT250 14/12 A3042 RMK AO2 SLP300
                 T01390122 $ =
2017-10-22 07:56 METAR KISP 221156Z 00000KT 10SM FEW200 BKN250 10/09 A3040 RMK AO2 SLP293
                 T01000094 10111 20083 53014 $ =
2017-10-22 06:56 METAR KISP 221056Z 00000KT 10SM SCT250 09/08 A3038 RMK AO2 SLP286 T00890083 $ =
2017-10-22 05:56 METAR KISP 220956Z 03003KT 10SM FEW250 09/08 A3036 RMK AO2 SLP281 T00890083 $ =
2017-10-22 04:56 METAR KISP 220856Z AUTO 00000KT 10SM CLR 10/09 A3036 RMK AO2 SLP279 T01000094
                 53001 $ =
2017-10-22 03:56 METAR KISP 220756Z AUTO 34003KT 9SM CLR 10/09 A3035 RMK AO2 SLP278 T01000094 $ =
2017-10-22 02:56 METAR KISP 220656Z AUTO 00000KT 10SM CLR 10/10 A3035 RMK AO2 SLP276 T01000100 $
                 =
2017-10-22 02:10 METAR KISP 220610Z AUTO 00000KT 4SM BR CLR 11/11 A3035 RMK AO2 T01110111 $ =
2017-10-22 02:02 METAR KISP 220602Z AUTO 00000KT 1 3/4SM BR CLR 11/11 A3035 RMK AO2 VIS 1/2V5
                 T01110111 $ =
2017-10-22 01:56 METAR KISP 220556Z AUTO 00000KT 8SM CLR 11/11 A3035 RMK AO2 SLP278 T01110111
                 10156 20111 52001 $ =
2017-10-22 00:56 METAR KISP 220456Z AUTO 00000KT 10SM CLR 12/11 A3036 RMK AO2 SLP279 T01170111
                 402440083 $ =
2017-10-21 23:56 METAR KISP 220356Z 00000KT 10SM SCT250 13/13 A3035 RMK AO2 SLP278 LAST T01330128
                 $ =
2017-10-21 22:56 METAR KISP 220256Z 00000KT 10SM SCT250 13/13 A3035 RMK AO2 SLP278 T01330128
                 51003 $ =
2017-10-21 21:56 METAR KISP 220156Z 24003KT 10SM SCT250 14/13 A3035 RMK AO2 SLP278 T01440133 $ =
2017-10-21 20:56 METAR KISP 220056Z 25003KT 10SM BKN250 14/13 A3035 RMK AO2 SLP276 T01440133 $ =
2017-10-21 19:56 METAR KISP 212356Z 24003KT 10SM BKN250 16/13 A3034 RMK AO2 SLP274 T01560133
                 10222 20150 51009 $ =
2017-10-21 18:56 METAR KISP 212256Z 22004KT 10SM BKN250 16/13 A3034 RMK AO2 SLP273 T01610128 $ =
2017-10-21 17:56 METAR KISP 212156Z 19004KT 10SM BKN250 18/11 A3032 RMK AO2 SLP267 T01780111 $ =

Support USWX by starting your Amazon purchase here.